LFLL/LYS METAR and TAF weather

Enter ICAO airport designator
Station Type Date Time Source
LFLL METAR 2019/06/19 01:30 UTC NOAA

LFLL 190130Z 16010KT CAVOK 22/07 Q1012 NOSIG


Station Type Date Time Source
LFLL Decoded METAR 2019/06/19 01:30 UTC NOAA

Lyon / Satolas, France (LFLL) 45-44N 005-05E 240M
Jun 18, 2019 - 09:30 PM EDT / 2019.06.19 0130 UTC
Wind: from the SSE (160 degrees) at 12 MPH (10 KT):0
Visibility: greater than 7 mile(s):0
Temperature: 71 F (22 C)
Dew Point: 44 F (7 C)
Relative Humidity: 37%
Pressure (altimeter): 29.88 in. Hg (1012 hPa)
ob: LFLL 190130Z 16010KT CAVOK 22/07 Q1012 NOSIG
cycle: 1

Station Type Date Time Source
LFLL TAF 2019/06/18 18:21 UTC NOAA

TAF LFLL 181700Z 1818/1924 18010KT CAVOK
TEMPO 1818/1912 18015G25KT
TEMPO 1912/1918 18018G30KT
BECMG 1918/1921 34008KT PROB30
TEMPO 1918/1924 30020G35KT 4000 TSRA SCT050 BKN060CB

Example: see airport list